sensor_id;sensor_type;location;lat;lon;timestamp;temperature;humidity
27114;DHT22;14648;49.730;8.614;2022-08-19T00:01:33;22.90;59.40
27114;DHT22;14648;49.730;8.614;2022-08-19T00:04:03;22.80;59.40
27114;DHT22;14648;49.730;8.614;2022-08-19T00:06:31;22.80;59.50
27114;DHT22;14648;49.730;8.614;2022-08-19T00:08:58;22.80;59.50
27114;DHT22;14648;49.730;8.614;2022-08-19T00:11:26;22.90;59.70
27114;DHT22;14648;49.730;8.614;2022-08-19T00:13:54;22.90;59.50
27114;DHT22;14648;49.730;8.614;2022-08-19T00:16:21;22.80;59.50
27114;DHT22;14648;49.730;8.614;2022-08-19T00:18:48;22.90;59.60
27114;DHT22;14648;49.730;8.614;2022-08-19T00:21:14;22.90;59.70
27114;DHT22;14648;49.730;8.614;2022-08-19T00:23:41;22.90;59.60
27114;DHT22;14648;49.730;8.614;2022-08-19T00:26:07;22.90;59.60
27114;DHT22;14648;49.730;8.614;2022-08-19T00:28:34;22.90;59.70
27114;DHT22;14648;49.730;8.614;2022-08-19T00:31:03;22.90;59.60
27114;DHT22;14648;49.730;8.614;2022-08-19T00:33:30;22.90;59.70
27114;DHT22;14648;49.730;8.614;2022-08-19T00:36:00;22.80;59.60
27114;DHT22;14648;49.730;8.614;2022-08-19T00:38:26;22.90;59.70
27114;DHT22;14648;49.730;8.614;2022-08-19T00:40:53;22.90;59.60
27114;DHT22;14648;49.730;8.614;2022-08-19T00:43:21;22.80;59.60
27114;DHT22;14648;49.730;8.614;2022-08-19T00:45:49;22.90;59.70
27114;DHT22;14648;49.730;8.614;2022-08-19T00:48:16;22.80;59.60
27114;DHT22;14648;49.730;8.614;2022-08-19T00:50:44;22.80;59.60
27114;DHT22;14648;49.730;8.614;2022-08-19T00:53:15;22.80;59.70
27114;DHT22;14648;49.730;8.614;2022-08-19T00:55:46;22.80;59.80
27114;DHT22;14648;49.730;8.614;2022-08-19T00:58:15;22.80;59.80
27114;DHT22;14648;49.730;8.614;2022-08-19T01:00:43;22.80;59.80
27114;DHT22;14648;49.730;8.614;2022-08-19T01:03:13;22.80;59.80
27114;DHT22;14648;49.730;8.614;2022-08-19T01:05:42;22.80;59.80
27114;DHT22;14648;49.730;8.614;2022-08-19T01:08:09;22.70;59.80
27114;DHT22;14648;49.730;8.614;2022-08-19T01:10:43;22.70;59.70
27114;DHT22;14648;49.730;8.614;2022-08-19T01:13:21;22.70;59.60
27114;DHT22;14648;49.730;8.614;2022-08-19T01:15:54;22.70;59.70
27114;DHT22;14648;49.730;8.614;2022-08-19T01:18:21;22.70;59.80
27114;DHT22;14648;49.730;8.614;2022-08-19T01:20:48;22.70;59.80
27114;DHT22;14648;49.730;8.614;2022-08-19T01:23:15;22.70;59.70
27114;DHT22;14648;49.730;8.614;2022-08-19T01:25:46;22.60;59.70
27114;DHT22;14648;49.730;8.614;2022-08-19T01:28:27;22.60;59.70
27114;DHT22;14648;49.730;8.614;2022-08-19T01:30:54;22.70;59.90
27114;DHT22;14648;49.730;8.614;2022-08-19T01:33:21;22.70;59.90
27114;DHT22;14648;49.730;8.614;2022-08-19T01:35:47;22.70;59.80
27114;DHT22;14648;49.730;8.614;2022-08-19T01:38:24;22.70;59.80
27114;DHT22;14648;49.730;8.614;2022-08-19T01:40:51;22.70;59.90
27114;DHT22;14648;49.730;8.614;2022-08-19T01:43:17;22.70;59.80
27114;DHT22;14648;49.730;8.614;2022-08-19T01:45:45;22.70;59.80
27114;DHT22;14648;49.730;8.614;2022-08-19T01:48:11;22.70;59.90
27114;DHT22;14648;49.730;8.614;2022-08-19T01:50:38;22.70;59.80
27114;DHT22;14648;49.730;8.614;2022-08-19T01:53:06;22.70;59.80
27114;DHT22;14648;49.730;8.614;2022-08-19T01:55:36;22.70;59.90
27114;DHT22;14648;49.730;8.614;2022-08-19T01:58:04;22.70;60.00
27114;DHT22;14648;49.730;8.614;2022-08-19T02:00:32;22.70;60.10
27114;DHT22;14648;49.730;8.614;2022-08-19T02:02:58;22.70;60.10
27114;DHT22;14648;49.730;8.614;2022-08-19T02:05:24;22.60;60.00
27114;DHT22;14648;49.730;8.614;2022-08-19T02:07:50;22.70;60.10
27114;DHT22;14648;49.730;8.614;2022-08-19T02:10:19;22.70;60.10
27114;DHT22;14648;49.730;8.614;2022-08-19T02:12:47;22.70;60.10
27114;DHT22;14648;49.730;8.614;2022-08-19T02:15:14;22.70;60.10
27114;DHT22;14648;49.730;8.614;2022-08-19T02:17:41;22.60;60.10
27114;DHT22;14648;49.730;8.614;2022-08-19T02:20:07;22.70;60.10
27114;DHT22;14648;49.730;8.614;2022-08-19T02:22:34;22.70;60.30
27114;DHT22;14648;49.730;8.614;2022-08-19T02:25:01;22.70;60.30
27114;DHT22;14648;49.730;8.614;2022-08-19T02:27:27;22.60;60.20
27114;DHT22;14648;49.730;8.614;2022-08-19T02:29:53;22.60;60.20
27114;DHT22;14648;49.730;8.614;2022-08-19T02:32:19;22.60;60.20
27114;DHT22;14648;49.730;8.614;2022-08-19T02:34:46;22.60;60.20
27114;DHT22;14648;49.730;8.614;2022-08-19T02:37:12;22.60;60.20
27114;DHT22;14648;49.730;8.614;2022-08-19T02:39:57;22.60;60.20
27114;DHT22;14648;49.730;8.614;2022-08-19T02:42:23;22.60;60.10
27114;DHT22;14648;49.730;8.614;2022-08-19T02:44:49;22.50;60.20
27114;DHT22;14648;49.730;8.614;2022-08-19T02:47:15;22.50;60.30
27114;DHT22;14648;49.730;8.614;2022-08-19T02:49:41;22.50;60.30
27114;DHT22;14648;49.730;8.614;2022-08-19T02:52:07;22.50;60.30
27114;DHT22;14648;49.730;8.614;2022-08-19T02:54:33;22.50;60.30
27114;DHT22;14648;49.730;8.614;2022-08-19T02:56:59;22.50;60.50
27114;DHT22;14648;49.730;8.614;2022-08-19T02:59:25;22.50;60.50
27114;DHT22;14648;49.730;8.614;2022-08-19T03:01:52;22.40;60.40
27114;DHT22;14648;49.730;8.614;2022-08-19T03:04:18;22.40;60.40
27114;DHT22;14648;49.730;8.614;2022-08-19T03:06:46;22.40;60.50
27114;DHT22;14648;49.730;8.614;2022-08-19T03:09:13;22.40;60.50
27114;DHT22;14648;49.730;8.614;2022-08-19T03:11:39;22.40;60.50
27114;DHT22;14648;49.730;8.614;2022-08-19T03:14:07;22.40;60.50
27114;DHT22;14648;49.730;8.614;2022-08-19T03:16:40;22.30;60.50
27114;DHT22;14648;49.730;8.614;2022-08-19T03:19:07;22.30;60.50
27114;DHT22;14648;49.730;8.614;2022-08-19T03:21:34;22.30;60.40
27114;DHT22;14648;49.730;8.614;2022-08-19T03:24:03;22.20;60.30
27114;DHT22;14648;49.730;8.614;2022-08-19T03:26:31;22.20;60.40
27114;DHT22;14648;49.730;8.614;2022-08-19T03:28:57;22.20;60.40
27114;DHT22;14648;49.730;8.614;2022-08-19T03:31:27;22.20;60.40
27114;DHT22;14648;49.730;8.614;2022-08-19T03:33:53;22.10;60.30
27114;DHT22;14648;49.730;8.614;2022-08-19T03:36:22;22.10;60.30
27114;DHT22;14648;49.730;8.614;2022-08-19T03:38:52;22.10;60.40
27114;DHT22;14648;49.730;8.614;2022-08-19T03:41:25;22.10;60.40
27114;DHT22;14648;49.730;8.614;2022-08-19T03:43:53;22.10;60.50
27114;DHT22;14648;49.730;8.614;2022-08-19T03:46:23;22.10;60.50
27114;DHT22;14648;49.730;8.614;2022-08-19T03:48:53;22.00;60.40
27114;DHT22;14648;49.730;8.614;2022-08-19T03:51:32;22.00;60.40
27114;DHT22;14648;49.730;8.614;2022-08-19T03:54:03;22.00;60.40
27114;DHT22;14648;49.730;8.614;2022-08-19T03:56:31;21.90;60.30
27114;DHT22;14648;49.730;8.614;2022-08-19T03:59:00;21.90;60.30
27114;DHT22;14648;49.730;8.614;2022-08-19T04:01:28;21.90;60.40
27114;DHT22;14648;49.730;8.614;2022-08-19T04:03:59;21.90;60.50
27114;DHT22;14648;49.730;8.614;2022-08-19T04:06:29;21.80;61.30
27114;DHT22;14648;49.730;8.614;2022-08-19T04:08:57;21.80;61.20
27114;DHT22;14648;49.730;8.614;2022-08-19T04:11:26;21.70;61.20
27114;DHT22;14648;49.730;8.614;2022-08-19T04:13:54;21.70;61.30
27114;DHT22;14648;49.730;8.614;2022-08-19T04:16:24;21.60;61.30
27114;DHT22;14648;49.730;8.614;2022-08-19T04:18:54;21.60;61.60
27114;DHT22;14648;49.730;8.614;2022-08-19T04:21:24;21.50;61.60
27114;DHT22;14648;49.730;8.614;2022-08-19T04:23:51;21.60;62.50
27114;DHT22;14648;49.730;8.614;2022-08-19T04:26:23;21.50;61.80
27114;DHT22;14648;49.730;8.614;2022-08-19T04:28:51;21.50;62.00
27114;DHT22;14648;49.730;8.614;2022-08-19T04:31:21;21.50;62.00
27114;DHT22;14648;49.730;8.614;2022-08-19T04:33:57;21.50;62.40
27114;DHT22;14648;49.730;8.614;2022-08-19T04:36:31;21.40;62.20
27114;DHT22;14648;49.730;8.614;2022-08-19T04:39:00;21.40;62.30
27114;DHT22;14648;49.730;8.614;2022-08-19T04:41:32;21.40;62.10
27114;DHT22;14648;49.730;8.614;2022-08-19T04:44:17;21.40;62.10
27114;DHT22;14648;49.730;8.614;2022-08-19T04:46:45;21.40;62.10
27114;DHT22;14648;49.730;8.614;2022-08-19T04:49:13;21.40;62.10
27114;DHT22;14648;49.730;8.614;2022-08-19T04:51:42;21.40;62.60
27114;DHT22;14648;49.730;8.614;2022-08-19T04:54:10;21.40;62.20
27114;DHT22;14648;49.730;8.614;2022-08-19T04:56:36;21.40;62.40
27114;DHT22;14648;49.730;8.614;2022-08-19T04:59:02;21.50;62.40
27114;DHT22;14648;49.730;8.614;2022-08-19T05:01:31;21.50;62.40
27114;DHT22;14648;49.730;8.614;2022-08-19T05:03:59;21.50;62.40
27114;DHT22;14648;49.730;8.614;2022-08-19T05:06:26;21.40;62.20
27114;DHT22;14648;49.730;8.614;2022-08-19T05:08:53;21.50;62.70
27114;DHT22;14648;49.730;8.614;2022-08-19T05:11:22;21.50;62.70
27114;DHT22;14648;49.730;8.614;2022-08-19T05:13:52;21.50;62.70
27114;DHT22;14648;49.730;8.614;2022-08-19T05:16:20;21.50;62.70
27114;DHT22;14648;49.730;8.614;2022-08-19T05:18:47;21.50;62.90
27114;DHT22;14648;49.730;8.614;2022-08-19T05:21:32;21.50;62.80
27114;DHT22;14648;49.730;8.614;2022-08-19T05:24:17;21.60;62.80
27114;DHT22;14648;49.730;8.614;2022-08-19T05:26:47;21.60;62.70
27114;DHT22;14648;49.730;8.614;2022-08-19T05:29:16;21.70;62.80
27114;DHT22;14648;49.730;8.614;2022-08-19T05:31:44;21.70;62.90
27114;DHT22;14648;49.730;8.614;2022-08-19T05:34:11;21.70;63.00
27114;DHT22;14648;49.730;8.614;2022-08-19T05:36:40;21.70;62.80
27114;DHT22;14648;49.730;8.614;2022-08-19T05:39:14;21.70;62.90
27114;DHT22;14648;49.730;8.614;2022-08-19T05:41:43;21.70;62.80
27114;DHT22;14648;49.730;8.614;2022-08-19T05:44:11;21.80;62.80
27114;DHT22;14648;49.730;8.614;2022-08-19T05:46:38;21.70;62.70
27114;DHT22;14648;49.730;8.614;2022-08-19T05:49:07;21.70;62.70
27114;DHT22;14648;49.730;8.614;2022-08-19T05:51:36;21.80;62.70
27114;DHT22;14648;49.730;8.614;2022-08-19T05:54:03;21.80;62.70
27114;DHT22;14648;49.730;8.614;2022-08-19T05:56:31;21.80;62.60
27114;DHT22;14648;49.730;8.614;2022-08-19T05:58:57;21.90;62.70
27114;DHT22;14648;49.730;8.614;2022-08-19T06:01:25;21.90;62.90
27114;DHT22;14648;49.730;8.614;2022-08-19T06:03:51;21.90;62.70
27114;DHT22;14648;49.730;8.614;2022-08-19T06:06:18;21.90;62.70
27114;DHT22;14648;49.730;8.614;2022-08-19T06:08:44;21.90;62.70
27114;DHT22;14648;49.730;8.614;2022-08-19T06:13:44;22.00;62.50
27114;DHT22;14648;49.730;8.614;2022-08-19T06:16:13;22.10;62.60
27114;DHT22;14648;49.730;8.614;2022-08-19T06:18:45;22.10;62.30
27114;DHT22;14648;49.730;8.614;2022-08-19T06:21:10;22.10;62.20
27114;DHT22;14648;49.730;8.614;2022-08-19T06:23:36;22.10;62.10
27114;DHT22;14648;49.730;8.614;2022-08-19T06:26:02;22.20;62.20
27114;DHT22;14648;49.730;8.614;2022-08-19T06:28:27;22.20;61.90
27114;DHT22;14648;49.730;8.614;2022-08-19T06:30:53;22.20;61.80
27114;DHT22;14648;49.730;8.614;2022-08-19T06:33:18;22.20;61.60
27114;DHT22;14648;49.730;8.614;2022-08-19T06:35:44;22.30;61.60
27114;DHT22;14648;49.730;8.614;2022-08-19T06:38:10;22.30;61.60
27114;DHT22;14648;49.730;8.614;2022-08-19T06:40:36;22.30;61.60
27114;DHT22;14648;49.730;8.614;2022-08-19T06:43:03;22.30;61.50
27114;DHT22;14648;49.730;8.614;2022-08-19T06:45:29;22.30;61.60
27114;DHT22;14648;49.730;8.614;2022-08-19T06:47:55;22.40;61.60
27114;DHT22;14648;49.730;8.614;2022-08-19T06:50:25;22.40;61.70
27114;DHT22;14648;49.730;8.614;2022-08-19T06:52:51;22.50;61.60
27114;DHT22;14648;49.730;8.614;2022-08-19T06:55:17;22.50;61.50
27114;DHT22;14648;49.730;8.614;2022-08-19T06:57:43;22.60;61.10
27114;DHT22;14648;49.730;8.614;2022-08-19T07:00:10;22.80;61.10
27114;DHT22;14648;49.730;8.614;2022-08-19T07:02:39;22.90;61.00
27114;DHT22;14648;49.730;8.614;2022-08-19T07:05:06;23.00;60.80
27114;DHT22;14648;49.730;8.614;2022-08-19T07:07:32;23.00;61.00
27114;DHT22;14648;49.730;8.614;2022-08-19T07:09:58;23.10;61.10
27114;DHT22;14648;49.730;8.614;2022-08-19T07:12:23;23.10;60.90
27114;DHT22;14648;49.730;8.614;2022-08-19T07:14:49;23.20;60.50
27114;DHT22;14648;49.730;8.614;2022-08-19T07:17:15;23.20;60.00
27114;DHT22;14648;49.730;8.614;2022-08-19T07:19:41;23.20;59.80
27114;DHT22;14648;49.730;8.614;2022-08-19T07:22:09;23.30;59.80
27114;DHT22;14648;49.730;8.614;2022-08-19T07:24:36;23.30;59.70
27114;DHT22;14648;49.730;8.614;2022-08-19T07:27:04;23.30;59.50
27114;DHT22;14648;49.730;8.614;2022-08-19T07:29:32;23.30;59.40
27114;DHT22;14648;49.730;8.614;2022-08-19T07:32:00;23.40;59.40
27114;DHT22;14648;49.730;8.614;2022-08-19T07:34:28;23.40;59.30
27114;DHT22;14648;49.730;8.614;2022-08-19T07:36:55;23.50;59.50
27114;DHT22;14648;49.730;8.614;2022-08-19T07:39:26;23.60;59.30
27114;DHT22;14648;49.730;8.614;2022-08-19T07:41:54;23.70;59.20
27114;DHT22;14648;49.730;8.614;2022-08-19T07:44:21;23.90;59.30
27114;DHT22;14648;49.730;8.614;2022-08-19T07:46:51;24.00;58.90
27114;DHT22;14648;49.730;8.614;2022-08-19T07:49:19;24.20;58.60
27114;DHT22;14648;49.730;8.614;2022-08-19T07:52:05;24.30;58.10
27114;DHT22;14648;49.730;8.614;2022-08-19T07:54:35;24.40;57.30
27114;DHT22;14648;49.730;8.614;2022-08-19T07:57:02;24.50;57.60
27114;DHT22;14648;49.730;8.614;2022-08-19T07:59:29;24.60;57.20
27114;DHT22;14648;49.730;8.614;2022-08-19T08:01:57;24.80;57.00
27114;DHT22;14648;49.730;8.614;2022-08-19T08:04:24;24.90;56.50
27114;DHT22;14648;49.730;8.614;2022-08-19T08:07:09;25.00;56.30
27114;DHT22;14648;49.730;8.614;2022-08-19T08:09:53;25.10;56.30
27114;DHT22;14648;49.730;8.614;2022-08-19T08:12:22;25.20;56.00
27114;DHT22;14648;49.730;8.614;2022-08-19T08:15:15;25.30;55.10
27114;DHT22;14648;49.730;8.614;2022-08-19T08:17:44;25.30;54.60
27114;DHT22;14648;49.730;8.614;2022-08-19T08:20:11;25.20;54.60
27114;DHT22;14648;49.730;8.614;2022-08-19T08:22:37;25.20;54.50
27114;DHT22;14648;49.730;8.614;2022-08-19T08:25:26;25.20;54.50
27114;DHT22;14648;49.730;8.614;2022-08-19T08:27:52;25.10;54.40
27114;DHT22;14648;49.730;8.614;2022-08-19T08:30:24;25.10;54.40
27114;DHT22;14648;49.730;8.614;2022-08-19T08:32:51;25.10;54.20
27114;DHT22;14648;49.730;8.614;2022-08-19T08:35:20;25.10;54.00
27114;DHT22;14648;49.730;8.614;2022-08-19T08:37:52;25.10;53.80
27114;DHT22;14648;49.730;8.614;2022-08-19T08:40:32;25.10;53.60
27114;DHT22;14648;49.730;8.614;2022-08-19T08:43:28;25.10;53.60
27114;DHT22;14648;49.730;8.614;2022-08-19T08:46:05;25.10;54.40
27114;DHT22;14648;49.730;8.614;2022-08-19T08:51:36;25.20;53.70
27114;DHT22;14648;49.730;8.614;2022-08-19T08:54:11;25.20;53.60
27114;DHT22;14648;49.730;8.614;2022-08-19T08:56:41;25.30;53.70
27114;DHT22;14648;49.730;8.614;2022-08-19T08:59:15;25.40;53.60
27114;DHT22;14648;49.730;8.614;2022-08-19T09:01:45;25.50;52.90
27114;DHT22;14648;49.730;8.614;2022-08-19T09:04:12;25.70;52.60
27114;DHT22;14648;49.730;8.614;2022-08-19T09:07:13;25.80;52.00
27114;DHT22;14648;49.730;8.614;2022-08-19T09:09:54;25.90;51.40
27114;DHT22;14648;49.730;8.614;2022-08-19T09:12:46;26.00;51.80
27114;DHT22;14648;49.730;8.614;2022-08-19T09:15:36;26.10;51.30
27114;DHT22;14648;49.730;8.614;2022-08-19T09:18:05;26.30;50.40
27114;DHT22;14648;49.730;8.614;2022-08-19T09:20:32;26.40;50.10
27114;DHT22;14648;49.730;8.614;2022-08-19T09:22:58;26.50;49.60
27114;DHT22;14648;49.730;8.614;2022-08-19T09:25:24;26.60;50.10
27114;DHT22;14648;49.730;8.614;2022-08-19T09:27:51;26.70;49.70
27114;DHT22;14648;49.730;8.614;2022-08-19T09:30:27;26.80;48.70
27114;DHT22;14648;49.730;8.614;2022-08-19T09:32:55;26.80;48.20
27114;DHT22;14648;49.730;8.614;2022-08-19T09:35:22;27.00;48.60
27114;DHT22;14648;49.730;8.614;2022-08-19T09:37:49;27.00;48.10
27114;DHT22;14648;49.730;8.614;2022-08-19T09:40:16;27.10;47.90
27114;DHT22;14648;49.730;8.614;2022-08-19T09:42:44;27.10;48.30
27114;DHT22;14648;49.730;8.614;2022-08-19T09:45:12;27.10;47.60
27114;DHT22;14648;49.730;8.614;2022-08-19T09:47:39;27.10;47.70
27114;DHT22;14648;49.730;8.614;2022-08-19T09:50:07;27.10;47.70
27114;DHT22;14648;49.730;8.614;2022-08-19T09:52:33;27.20;47.30
27114;DHT22;14648;49.730;8.614;2022-08-19T09:55:07;27.30;47.20
27114;DHT22;14648;49.730;8.614;2022-08-19T09:57:34;27.40;46.90
27114;DHT22;14648;49.730;8.614;2022-08-19T10:00:00;27.50;46.40
27114;DHT22;14648;49.730;8.614;2022-08-19T10:02:26;27.60;46.10
27114;DHT22;14648;49.730;8.614;2022-08-19T10:04:52;27.80;45.50
27114;DHT22;14648;49.730;8.614;2022-08-19T10:07:37;28.00;45.00
27114;DHT22;14648;49.730;8.614;2022-08-19T10:10:05;28.20;45.00
27114;DHT22;14648;49.730;8.614;2022-08-19T10:12:32;28.10;44.80
27114;DHT22;14648;49.730;8.614;2022-08-19T10:14:59;28.20;44.70
27114;DHT22;14648;49.730;8.614;2022-08-19T10:17:25;28.20;44.50
27114;DHT22;14648;49.730;8.614;2022-08-19T10:19:52;28.20;44.50
27114;DHT22;14648;49.730;8.614;2022-08-19T10:22:18;28.20;44.50
27114;DHT22;14648;49.730;8.614;2022-08-19T10:24:47;28.40;44.20
27114;DHT22;14648;49.730;8.614;2022-08-19T10:27:13;28.50;43.50
27114;DHT22;14648;49.730;8.614;2022-08-19T10:29:40;28.50;43.30
27114;DHT22;14648;49.730;8.614;2022-08-19T10:32:08;28.50;42.90
27114;DHT22;14648;49.730;8.614;2022-08-19T10:34:36;28.50;43.10
27114;DHT22;14648;49.730;8.614;2022-08-19T10:37:04;28.70;43.40
27114;DHT22;14648;49.730;8.614;2022-08-19T10:39:32;28.90;43.20
27114;DHT22;14648;49.730;8.614;2022-08-19T10:42:05;29.00;43.20
27114;DHT22;14648;49.730;8.614;2022-08-19T10:44:32;29.30;43.20
27114;DHT22;14648;49.730;8.614;2022-08-19T10:47:00;29.50;42.60
27114;DHT22;14648;49.730;8.614;2022-08-19T10:49:26;29.60;41.30
27114;DHT22;14648;49.730;8.614;2022-08-19T10:51:52;29.60;40.90
27114;DHT22;14648;49.730;8.614;2022-08-19T10:54:37;29.60;40.50
27114;DHT22;14648;49.730;8.614;2022-08-19T10:57:21;29.60;40.90
27114;DHT22;14648;49.730;8.614;2022-08-19T10:59:49;29.80;40.60
27114;DHT22;14648;49.730;8.614;2022-08-19T11:02:15;29.90;39.80
27114;DHT22;14648;49.730;8.614;2022-08-19T11:04:41;30.00;40.00
27114;DHT22;14648;49.730;8.614;2022-08-19T11:07:07;30.00;39.90
27114;DHT22;14648;49.730;8.614;2022-08-19T11:09:39;30.10;39.90
27114;DHT22;14648;49.730;8.614;2022-08-19T11:12:06;30.20;39.50
27114;DHT22;14648;49.730;8.614;2022-08-19T11:14:33;30.30;39.30
27114;DHT22;14648;49.730;8.614;2022-08-19T11:17:01;30.40;39.00
27114;DHT22;14648;49.730;8.614;2022-08-19T11:19:28;30.40;39.00
27114;DHT22;14648;49.730;8.614;2022-08-19T11:21:54;30.50;38.60
27114;DHT22;14648;49.730;8.614;2022-08-19T11:24:22;30.60;38.00
27114;DHT22;14648;49.730;8.614;2022-08-19T11:26:53;30.70;37.90
27114;DHT22;14648;49.730;8.614;2022-08-19T11:29:24;30.70;37.60
27114;DHT22;14648;49.730;8.614;2022-08-19T11:31:51;30.90;37.40
27114;DHT22;14648;49.730;8.614;2022-08-19T11:34:20;31.00;37.40
27114;DHT22;14648;49.730;8.614;2022-08-19T11:36:49;31.00;36.80
27114;DHT22;14648;49.730;8.614;2022-08-19T11:39:17;31.20;37.00
27114;DHT22;14648;49.730;8.614;2022-08-19T11:41:45;31.20;36.90
27114;DHT22;14648;49.730;8.614;2022-08-19T11:44:11;31.30;36.40
27114;DHT22;14648;49.730;8.614;2022-08-19T11:46:40;31.40;35.20
27114;DHT22;14648;49.730;8.614;2022-08-19T11:49:13;31.50;34.70
27114;DHT22;14648;49.730;8.614;2022-08-19T11:51:41;31.50;34.80
27114;DHT22;14648;49.730;8.614;2022-08-19T11:54:11;31.60;35.00
27114;DHT22;14648;49.730;8.614;2022-08-19T11:56:39;31.70;35.10
27114;DHT22;14648;49.730;8.614;2022-08-19T11:59:05;31.80;34.80
27114;DHT22;14648;49.730;8.614;2022-08-19T12:01:33;31.70;34.70
27114;DHT22;14648;49.730;8.614;2022-08-19T12:03:59;31.40;35.20
27114;DHT22;14648;49.730;8.614;2022-08-19T12:06:29;31.30;35.20
27114;DHT22;14648;49.730;8.614;2022-08-19T12:08:58;31.40;35.10
27114;DHT22;14648;49.730;8.614;2022-08-19T12:11:26;31.50;34.50
27114;DHT22;14648;49.730;8.614;2022-08-19T12:13:52;31.40;34.10
27114;DHT22;14648;49.730;8.614;2022-08-19T12:16:23;31.40;34.70
27114;DHT22;14648;49.730;8.614;2022-08-19T12:18:50;31.40;34.70
27114;DHT22;14648;49.730;8.614;2022-08-19T12:21:20;31.60;34.80
27114;DHT22;14648;49.730;8.614;2022-08-19T12:23:50;31.60;34.10
27114;DHT22;14648;49.730;8.614;2022-08-19T12:26:17;31.60;33.90
27114;DHT22;14648;49.730;8.614;2022-08-19T12:28:43;31.50;34.10
27114;DHT22;14648;49.730;8.614;2022-08-19T12:31:09;31.60;34.00
27114;DHT22;14648;49.730;8.614;2022-08-19T12:33:38;31.80;34.10
27114;DHT22;14648;49.730;8.614;2022-08-19T12:36:06;31.90;34.10
27114;DHT22;14648;49.730;8.614;2022-08-19T12:38:33;31.90;33.80
27114;DHT22;14648;49.730;8.614;2022-08-19T12:41:03;31.90;33.80
27114;DHT22;14648;49.730;8.614;2022-08-19T12:43:36;31.80;33.70
27114;DHT22;14648;49.730;8.614;2022-08-19T12:46:06;31.80;33.80
27114;DHT22;14648;49.730;8.614;2022-08-19T12:48:33;31.80;33.80
27114;DHT22;14648;49.730;8.614;2022-08-19T12:50:59;32.00;33.70
27114;DHT22;14648;49.730;8.614;2022-08-19T12:53:26;32.20;33.60
27114;DHT22;14648;49.730;8.614;2022-08-19T12:55:58;32.30;33.20
27114;DHT22;14648;49.730;8.614;2022-08-19T12:58:25;32.40;32.80
27114;DHT22;14648;49.730;8.614;2022-08-19T13:00:52;32.30;32.70
27114;DHT22;14648;49.730;8.614;2022-08-19T13:03:18;32.40;32.70
27114;DHT22;14648;49.730;8.614;2022-08-19T13:05:44;32.50;32.20
27114;DHT22;14648;49.730;8.614;2022-08-19T13:08:09;32.70;31.50
27114;DHT22;14648;49.730;8.614;2022-08-19T13:10:37;33.00;31.90
27114;DHT22;14648;49.730;8.614;2022-08-19T13:13:05;33.20;31.20
27114;DHT22;14648;49.730;8.614;2022-08-19T13:15:37;33.40;31.70
27114;DHT22;14648;49.730;8.614;2022-08-19T13:18:06;33.70;30.70
27114;DHT22;14648;49.730;8.614;2022-08-19T13:20:32;33.80;30.50
27114;DHT22;14648;49.730;8.614;2022-08-19T13:22:59;34.00;29.60
27114;DHT22;14648;49.730;8.614;2022-08-19T13:25:25;34.00;29.20
27114;DHT22;14648;49.730;8.614;2022-08-19T13:27:50;33.90;28.20
27114;DHT22;14648;49.730;8.614;2022-08-19T13:30:18;33.70;28.00
27114;DHT22;14648;49.730;8.614;2022-08-19T13:33:04;33.40;28.60
27114;DHT22;14648;49.730;8.614;2022-08-19T13:35:50;33.40;28.50
27114;DHT22;14648;49.730;8.614;2022-08-19T13:38:21;33.50;28.50
27114;DHT22;14648;49.730;8.614;2022-08-19T13:40:49;33.50;28.30
27114;DHT22;14648;49.730;8.614;2022-08-19T13:43:17;33.30;28.60
27114;DHT22;14648;49.730;8.614;2022-08-19T13:45:44;33.00;28.90
27114;DHT22;14648;49.730;8.614;2022-08-19T13:48:10;32.80;28.70
27114;DHT22;14648;49.730;8.614;2022-08-19T13:50:44;32.60;28.90
27114;DHT22;14648;49.730;8.614;2022-08-19T13:53:13;32.40;29.60
27114;DHT22;14648;49.730;8.614;2022-08-19T13:55:43;32.50;29.60
27114;DHT22;14648;49.730;8.614;2022-08-19T13:58:10;32.90;29.60
27114;DHT22;14648;49.730;8.614;2022-08-19T14:00:39;33.00;29.60
27114;DHT22;14648;49.730;8.614;2022-08-19T14:03:06;33.10;29.40
27114;DHT22;14648;49.730;8.614;2022-08-19T14:05:32;33.00;29.40
27114;DHT22;14648;49.730;8.614;2022-08-19T14:07:58;33.10;29.50
27114;DHT22;14648;49.730;8.614;2022-08-19T14:10:26;33.30;29.20
27114;DHT22;14648;49.730;8.614;2022-08-19T14:12:55;33.30;28.60
27114;DHT22;14648;49.730;8.614;2022-08-19T14:15:23;33.20;28.50
27114;DHT22;14648;49.730;8.614;2022-08-19T14:17:49;33.10;28.80
27114;DHT22;14648;49.730;8.614;2022-08-19T14:20:16;33.10;29.10
27114;DHT22;14648;49.730;8.614;2022-08-19T14:22:42;33.20;28.90
27114;DHT22;14648;49.730;8.614;2022-08-19T14:25:12;33.30;28.60
27114;DHT22;14648;49.730;8.614;2022-08-19T14:27:40;33.40;28.60
27114;DHT22;14648;49.730;8.614;2022-08-19T14:30:09;33.50;28.70
27114;DHT22;14648;49.730;8.614;2022-08-19T14:32:36;33.60;29.00
27114;DHT22;14648;49.730;8.614;2022-08-19T14:35:04;33.50;28.50
27114;DHT22;14648;49.730;8.614;2022-08-19T14:37:30;33.50;28.80
27114;DHT22;14648;49.730;8.614;2022-08-19T14:39:56;33.60;28.60
27114;DHT22;14648;49.730;8.614;2022-08-19T14:42:22;33.60;28.40
27114;DHT22;14648;49.730;8.614;2022-08-19T14:44:47;33.70;28.00
27114;DHT22;14648;49.730;8.614;2022-08-19T14:47:13;33.70;27.80
27114;DHT22;14648;49.730;8.614;2022-08-19T14:49:39;33.70;27.50
27114;DHT22;14648;49.730;8.614;2022-08-19T14:52:05;33.70;28.00
27114;DHT22;14648;49.730;8.614;2022-08-19T14:54:31;33.70;28.20
27114;DHT22;14648;49.730;8.614;2022-08-19T14:56:57;33.70;28.40
27114;DHT22;14648;49.730;8.614;2022-08-19T14:59:23;33.80;28.20
27114;DHT22;14648;49.730;8.614;2022-08-19T15:01:49;33.90;27.70
27114;DHT22;14648;49.730;8.614;2022-08-19T15:04:15;34.00;27.60
27114;DHT22;14648;49.730;8.614;2022-08-19T15:06:42;34.20;27.50
27114;DHT22;14648;49.730;8.614;2022-08-19T15:09:08;34.30;27.50
27114;DHT22;14648;49.730;8.614;2022-08-19T15:11:36;34.30;27.20
27114;DHT22;14648;49.730;8.614;2022-08-19T15:14:02;34.40;27.00
27114;DHT22;14648;49.730;8.614;2022-08-19T15:16:28;34.40;27.00
27114;DHT22;14648;49.730;8.614;2022-08-19T15:18:56;34.20;27.10
27114;DHT22;14648;49.730;8.614;2022-08-19T15:21:24;34.20;27.40
27114;DHT22;14648;49.730;8.614;2022-08-19T15:23:51;34.10;27.70
27114;DHT22;14648;49.730;8.614;2022-08-19T15:26:18;34.00;27.40
27114;DHT22;14648;49.730;8.614;2022-08-19T15:28:46;33.90;27.10
27114;DHT22;14648;49.730;8.614;2022-08-19T15:31:12;33.90;27.10
27114;DHT22;14648;49.730;8.614;2022-08-19T15:33:43;33.80;26.70
27114;DHT22;14648;49.730;8.614;2022-08-19T15:36:10;33.70;26.50
27114;DHT22;14648;49.730;8.614;2022-08-19T15:38:37;33.60;26.50
27114;DHT22;14648;49.730;8.614;2022-08-19T15:41:16;33.40;26.60
27114;DHT22;14648;49.730;8.614;2022-08-19T15:44:00;33.30;26.90
27114;DHT22;14648;49.730;8.614;2022-08-19T15:46:35;33.10;27.30